Cmb Sakura — 3EGO3 — position and weather

sailwx.info

Track history (hours):
 
Tides and Currents Weather Stations Pressure Air Temp Water Temp Dewpoint Dewpoint Depression Visibility Wind Speed Wind Dir Waves Ship Positions

Cmb Sakura

Last reported at 2017-Jan-13 13:09 UTC. Time now 2017-Jan-23 12:51 UTC.
Position N 36°14' W 002°30'.
Warning: this ship's position is 9 days out of date.

Length 225 m; draft 6.7 m.

Type: Cargo ship. MMSI: 371784000.

Date/timePositionNaut miles runAvg speedWind from/ knotsBaromVisibWave heightAir tempDewpointWater temp
2017-Jan-13 13:09N 36°14' W 002°30'812.2
2017-Jan-13 12:32N 36°14' W 002°21'  
2017-Jan-10 23:20N 36°48' E 013°28'810.6
2017-Jan-10 22:33N 36°45' E 013°37'1010.5
2017-Jan-10 21:33N 36°41' E 013°49'1110.7
2017-Jan-10 20:33N 36°37' E 014°01'1111.1
2017-Jan-10 19:33N 36°32' E 014°14'1211.8
2017-Jan-10 18:33N 36°27' E 014°27'1110.9
2017-Jan-10 17:33N 36°26' E 014°41'  
Track history (hours):
 
Tides and Currents Weather Stations Pressure Air Temp Water Temp Dewpoint Dewpoint Depression Visibility Wind Speed Wind Dir Waves Ship Positions

Cmb Sakura

Last reported at 2017-Jan-13 13:09 UTC. Time now 2017-Jan-23 12:51 UTC.
Position N 36°14' W 002°30'.
Warning: this ship's position is 9 days out of date.

Length 225 m; draft 6.7 m.

Type: Cargo ship. MMSI: 371784000.

Date/timePositionNaut miles runAvg speedWind from/ knotsBaromVisibWave heightAir tempDewpointWater temp
2017-Jan-13 13:09N 36°14' W 002°30'812.2
2017-Jan-13 12:32N 36°14' W 002°21'  
2017-Jan-10 23:20N 36°48' E 013°28'810.6
2017-Jan-10 22:33N 36°45' E 013°37'1010.5
2017-Jan-10 21:33N 36°41' E 013°49'1110.7
2017-Jan-10 20:33N 36°37' E 014°01'1111.1
2017-Jan-10 19:33N 36°32' E 014°14'1211.8
2017-Jan-10 18:33N 36°27' E 014°27'1110.9
2017-Jan-10 17:33N 36°26' E 014°41'  

Dump ship's entire track history